createdAt,value
2022-08-26T00:00:35.433Z,98.60
2022-08-26T00:03:08.812Z,98.50
2022-08-26T00:05:43.292Z,98.50
2022-08-26T00:08:16.352Z,98.50
2022-08-26T00:10:49.099Z,98.70
2022-08-26T00:13:21.041Z,98.90
2022-08-26T00:15:53.584Z,98.80
2022-08-26T00:18:26.011Z,98.60
2022-08-26T00:20:58.149Z,98.40
2022-08-26T00:23:30.086Z,98.30
2022-08-26T00:26:02.654Z,98.10
2022-08-26T00:28:34.860Z,98.00
2022-08-26T00:31:07.157Z,98.10
2022-08-26T00:33:40.131Z,98.30
2022-08-26T00:36:19.972Z,98.60
2022-08-26T00:38:52.471Z,98.70
2022-08-26T00:41:24.438Z,98.80
2022-08-26T00:43:56.495Z,98.70
2022-08-26T00:46:32.833Z,98.80
2022-08-26T00:49:12.232Z,98.60
2022-08-26T00:51:49.369Z,98.40
2022-08-26T00:54:27.081Z,98.50
2022-08-26T00:57:05.070Z,98.80
2022-08-26T00:59:41.961Z,98.90
2022-08-26T01:02:21.257Z,99.00
2022-08-26T01:04:56.485Z,98.90
2022-08-26T01:07:31.312Z,99.00
2022-08-26T01:10:07.667Z,99.40
2022-08-26T01:12:47.974Z,99.60
2022-08-26T01:15:24.787Z,99.70
2022-08-26T01:17:58.652Z,99.60
2022-08-26T01:20:47.335Z,99.50
2022-08-26T01:23:21.701Z,99.50
2022-08-26T01:25:59.437Z,99.60
2022-08-26T01:28:34.103Z,99.30
2022-08-26T01:31:14.309Z,99.20
2022-08-26T01:33:57.239Z,99.40
2022-08-26T01:36:30.638Z,99.80
2022-08-26T01:39:05.746Z,99.90
2022-08-26T01:41:40.575Z,99.90
2022-08-26T01:44:19.706Z,99.90
2022-08-26T01:46:53.413Z,99.90
2022-08-26T01:49:26.767Z,99.90
2022-08-26T01:51:59.080Z,99.90
2022-08-26T01:54:31.111Z,99.90
2022-08-26T01:57:03.677Z,99.90
2022-08-26T01:59:35.844Z,99.90
2022-08-26T02:02:07.777Z,99.90
2022-08-26T02:04:49.921Z,99.90
2022-08-26T02:07:22.505Z,99.90
2022-08-26T02:09:58.680Z,99.90
2022-08-26T02:12:31.491Z,99.90
2022-08-26T02:15:08.456Z,99.90
2022-08-26T02:17:45.678Z,99.90
2022-08-26T02:20:20.333Z,99.90
2022-08-26T02:22:52.275Z,99.90
2022-08-26T02:25:44.823Z,99.90
2022-08-26T02:28:17.646Z,99.90
2022-08-26T02:30:51.689Z,99.90
2022-08-26T02:33:23.603Z,99.90
2022-08-26T02:35:56.429Z,99.90
2022-08-26T02:38:29.458Z,99.90
2022-08-26T02:41:01.653Z,99.90
2022-08-26T02:43:33.606Z,99.90
2022-08-26T02:46:06.039Z,99.90
2022-08-26T02:48:38.369Z,99.90
2022-08-26T02:51:11.435Z,99.90
2022-08-26T02:53:43.337Z,99.90
2022-08-26T02:56:15.261Z,99.90
2022-08-26T02:58:47.531Z,99.90
2022-08-26T03:01:28.038Z,99.90
2022-08-26T03:04:03.098Z,99.90
2022-08-26T03:06:35.182Z,99.90
2022-08-26T03:09:09.908Z,99.90
2022-08-26T03:11:47.169Z,99.90
2022-08-26T03:14:19.277Z,99.90
2022-08-26T03:16:53.965Z,99.90
2022-08-26T03:19:26.221Z,99.90
2022-08-26T03:21:58.654Z,99.90
2022-08-26T03:24:31.166Z,99.90
2022-08-26T03:27:05.865Z,99.90
2022-08-26T03:29:58.193Z,99.90
2022-08-26T03:32:30.268Z,99.90
2022-08-26T03:35:02.181Z,99.90
2022-08-26T03:37:34.043Z,99.90
2022-08-26T03:40:09.903Z,99.90
2022-08-26T03:42:45.335Z,99.90
2022-08-26T03:45:19.388Z,99.90
2022-08-26T03:47:52.008Z,99.90
2022-08-26T03:50:26.026Z,99.90
2022-08-26T03:52:59.295Z,99.90
2022-08-26T03:55:33.222Z,99.90
2022-08-26T03:58:05.225Z,99.90
2022-08-26T04:00:37.228Z,99.90
2022-08-26T04:03:12.863Z,99.90
2022-08-26T04:05:52.112Z,99.90
2022-08-26T04:08:24.802Z,99.90
2022-08-26T04:11:01.281Z,99.90
2022-08-26T04:13:33.637Z,99.90
2022-08-26T04:16:05.841Z,99.90
2022-08-26T04:18:38.227Z,99.90
2022-08-26T04:21:20.034Z,99.90
2022-08-26T04:23:52.880Z,99.90
2022-08-26T04:26:25.645Z,99.90
2022-08-26T04:28:58.016Z,99.90
2022-08-26T04:31:31.481Z,99.90
2022-08-26T04:34:05.080Z,99.90
2022-08-26T04:36:37.765Z,99.90
2022-08-26T04:39:16.854Z,99.90
2022-08-26T04:41:50.880Z,99.90
2022-08-26T04:44:24.991Z,99.90
2022-08-26T04:46:58.516Z,99.90
2022-08-26T04:49:35.401Z,99.90
2022-08-26T04:52:07.657Z,99.90
2022-08-26T04:54:42.005Z,99.90
2022-08-26T04:57:14.051Z,99.90
2022-08-26T04:59:45.988Z,99.90
2022-08-26T05:02:18.152Z,99.90
2022-08-26T05:04:51.941Z,99.90
2022-08-26T05:07:23.873Z,99.90
2022-08-26T05:09:55.782Z,99.90
2022-08-26T05:12:29.591Z,99.90
2022-08-26T05:15:01.489Z,99.90
2022-08-26T05:17:33.447Z,99.90
2022-08-26T05:20:06.375Z,99.90
2022-08-26T05:22:38.562Z,99.90
2022-08-26T05:25:10.501Z,99.90
2022-08-26T05:27:42.417Z,99.70
2022-08-26T05:30:14.481Z,99.70
2022-08-26T05:32:51.556Z,99.50
2022-08-26T05:35:31.941Z,99.10
2022-08-26T05:38:11.790Z,98.60
2022-08-26T05:40:45.736Z,98.10
2022-08-26T05:43:18.481Z,97.80
2022-08-26T05:45:52.198Z,97.40
2022-08-26T05:48:24.549Z,97.20
2022-08-26T05:50:56.561Z,96.80
2022-08-26T05:53:28.545Z,96.80
2022-08-26T05:56:00.673Z,97.00
2022-08-26T05:58:35.408Z,96.70
2022-08-26T06:01:20.265Z,96.80
2022-08-26T06:03:56.982Z,96.10
2022-08-26T06:06:34.780Z,95.80
2022-08-26T06:09:10.950Z,95.60
2022-08-26T06:11:43.322Z,95.40
2022-08-26T06:14:15.800Z,95.20
2022-08-26T06:16:47.963Z,95.10
2022-08-26T06:19:21.655Z,95.30
2022-08-26T06:21:55.056Z,95.30
2022-08-26T06:24:45.333Z,94.80
2022-08-26T06:27:17.217Z,94.40
2022-08-26T06:29:49.393Z,94.10
2022-08-26T06:32:21.697Z,93.40
2022-08-26T06:34:54.644Z,92.90
2022-08-26T06:37:26.552Z,92.80
2022-08-26T06:39:58.508Z,92.50
2022-08-26T06:42:30.587Z,92.30
2022-08-26T06:45:07.335Z,92.30
2022-08-26T06:47:39.602Z,92.20
2022-08-26T06:50:11.675Z,92.10
2022-08-26T06:52:43.566Z,91.70
2022-08-26T06:55:15.689Z,91.40
2022-08-26T06:57:47.574Z,90.50
2022-08-26T07:00:20.750Z,90.40
2022-08-26T07:02:52.897Z,90.40
2022-08-26T07:05:26.331Z,90.40
2022-08-26T07:07:58.456Z,89.70
2022-08-26T07:10:31.067Z,88.40
2022-08-26T07:13:02.975Z,87.50
2022-08-26T07:15:42.068Z,87.30
2022-08-26T07:18:14.247Z,87.20
2022-08-26T07:20:46.466Z,87.10
2022-08-26T07:23:18.341Z,87.30
2022-08-26T07:25:50.597Z,86.80
2022-08-26T07:28:22.957Z,86.80
2022-08-26T07:30:54.874Z,85.20
2022-08-26T07:33:27.290Z,85.50
2022-08-26T07:35:59.359Z,85.10
2022-08-26T07:38:33.765Z,86.00
2022-08-26T07:41:07.539Z,85.50
2022-08-26T07:43:41.158Z,86.00
2022-08-26T07:46:20.810Z,85.30
2022-08-26T07:48:59.462Z,86.90
2022-08-26T07:51:31.967Z,85.90
2022-08-26T07:54:05.106Z,86.40
2022-08-26T07:56:37.594Z,84.80
2022-08-26T07:59:13.670Z,86.00
2022-08-26T08:01:47.336Z,85.10
2022-08-26T08:04:26.139Z,83.50
2022-08-26T08:06:58.572Z,85.10
2022-08-26T08:09:31.114Z,85.70
2022-08-26T08:12:04.805Z,85.20
2022-08-26T08:14:42.197Z,84.90
2022-08-26T08:17:15.892Z,84.70
2022-08-26T08:19:48.323Z,84.70
2022-08-26T08:22:25.024Z,85.80
2022-08-26T08:24:59.429Z,86.10
2022-08-26T08:27:35.414Z,86.00
2022-08-26T08:30:13.820Z,85.80
2022-08-26T08:32:47.016Z,84.70
2022-08-26T08:35:22.843Z,83.30
2022-08-26T08:37:55.480Z,84.50
2022-08-26T08:40:28.063Z,85.20
2022-08-26T08:43:06.095Z,83.00
2022-08-26T08:45:52.293Z,82.80
2022-08-26T08:48:29.893Z,83.70
2022-08-26T08:51:34.250Z,84.90
2022-08-26T08:54:08.535Z,85.80
2022-08-26T08:56:53.269Z,85.30
2022-08-26T08:59:34.180Z,84.80
2022-08-26T09:02:51.233Z,85.00
2022-08-26T09:05:31.942Z,86.50
2022-08-26T09:08:11.356Z,85.00
2022-08-26T09:10:49.906Z,85.40
2022-08-26T09:13:26.171Z,85.80
2022-08-26T09:16:34.147Z,86.30
2022-08-26T09:19:19.011Z,86.50
2022-08-26T09:21:59.204Z,86.60
2022-08-26T09:24:34.495Z,85.10
2022-08-26T09:27:08.269Z,84.30
2022-08-26T09:29:45.611Z,83.90
2022-08-26T09:32:26.597Z,83.90
2022-08-26T09:35:02.698Z,85.00
2022-08-26T09:40:34.948Z,85.70
2022-08-26T09:43:22.477Z,85.50
2022-08-26T09:46:15.265Z,83.90
2022-08-26T09:48:47.398Z,84.70
2022-08-26T09:51:32.288Z,85.10
2022-08-26T09:54:05.620Z,83.20
2022-08-26T09:56:40.159Z,82.10
2022-08-26T09:59:12.270Z,81.80
2022-08-26T10:01:45.034Z,82.70
2022-08-26T10:04:26.716Z,83.20
2022-08-26T10:07:02.116Z,83.20
2022-08-26T10:09:40.892Z,81.80
2022-08-26T10:12:21.437Z,81.40
2022-08-26T10:14:58.071Z,80.60
2022-08-26T10:17:39.065Z,79.40
2022-08-26T10:20:23.244Z,81.10
2022-08-26T10:23:03.338Z,81.90
2022-08-26T10:25:45.354Z,80.90
2022-08-26T10:28:30.289Z,83.20
2022-08-26T10:31:12.204Z,83.90
2022-08-26T10:33:44.582Z,82.50
2022-08-26T10:36:47.209Z,83.40
2022-08-26T10:39:56.897Z,83.50
2022-08-26T10:42:38.865Z,84.40
2022-08-26T10:45:25.395Z,83.70
2022-08-26T10:48:03.384Z,84.30
2022-08-26T10:50:39.525Z,83.80
2022-08-26T10:53:24.851Z,85.10
2022-08-26T10:56:00.814Z,84.80
2022-08-26T10:58:58.121Z,85.30
2022-08-26T11:01:51.053Z,83.70
2022-08-26T11:04:30.587Z,84.40
2022-08-26T11:07:39.282Z,82.70
2022-08-26T11:10:17.304Z,82.90
2022-08-26T11:12:53.355Z,83.00
2022-08-26T11:15:26.492Z,83.30
2022-08-26T11:18:05.177Z,83.80
2022-08-26T11:20:45.048Z,84.20
2022-08-26T11:23:22.292Z,84.70
2022-08-26T11:26:09.274Z,84.90
2022-08-26T11:28:44.223Z,85.60
2022-08-26T11:31:19.004Z,86.10
2022-08-26T11:33:59.119Z,84.90
2022-08-26T11:36:37.752Z,85.40
2022-08-26T11:39:28.843Z,85.30
2022-08-26T11:42:20.572Z,86.60
2022-08-26T11:44:52.710Z,84.30
2022-08-26T11:47:35.139Z,85.10
2022-08-26T11:50:21.064Z,85.60
2022-08-26T11:53:04.320Z,85.60
2022-08-26T11:55:43.414Z,85.90
2022-08-26T11:58:16.051Z,85.30
2022-08-26T12:01:00.555Z,86.30
2022-08-26T12:03:45.191Z,86.40
2022-08-26T12:06:45.022Z,84.90
2022-08-26T12:09:22.133Z,85.20
2022-08-26T12:12:17.301Z,85.50
2022-08-26T12:14:49.834Z,86.20
2022-08-26T12:17:27.809Z,86.00
2022-08-26T12:19:59.691Z,87.20
2022-08-26T12:22:36.132Z,86.90
2022-08-26T12:25:10.037Z,85.30
2022-08-26T12:27:44.099Z,85.00
2022-08-26T12:30:26.510Z,84.30
2022-08-26T12:33:22.178Z,84.70
2022-08-26T12:36:00.725Z,83.40
2022-08-26T12:38:36.829Z,85.00
2022-08-26T12:41:08.831Z,85.20
2022-08-26T12:43:43.526Z,85.80
2022-08-26T12:46:26.651Z,85.80
2022-08-26T12:49:01.351Z,85.30
2022-08-26T12:51:34.851Z,84.20
2022-08-26T12:54:14.299Z,85.00
2022-08-26T12:56:46.623Z,85.60
2022-08-26T12:59:23.353Z,84.00
2022-08-26T13:01:55.537Z,85.10
2022-08-26T13:04:36.500Z,85.10
2022-08-26T13:07:26.389Z,84.60
2022-08-26T13:09:59.662Z,84.60
2022-08-26T13:12:35.377Z,83.40
2022-08-26T13:15:07.860Z,84.40
2022-08-26T13:17:39.881Z,84.40
2022-08-26T13:20:11.984Z,82.90
2022-08-26T13:22:43.982Z,83.00
2022-08-26T13:25:17.091Z,83.70
2022-08-26T13:27:51.894Z,84.00
2022-08-26T13:30:23.874Z,83.00
2022-08-26T13:33:00.555Z,83.90
2022-08-26T13:35:34.214Z,84.10
2022-08-26T13:38:08.937Z,83.90
2022-08-26T13:40:44.575Z,83.20
2022-08-26T13:43:16.614Z,83.20
2022-08-26T13:45:49.641Z,82.30
2022-08-26T13:48:23.510Z,82.00
2022-08-26T13:50:55.938Z,83.00
2022-08-26T13:53:30.539Z,82.70
2022-08-26T13:56:02.838Z,83.00
2022-08-26T13:58:34.799Z,84.00
2022-08-26T14:01:07.446Z,84.10
2022-08-26T14:03:39.551Z,83.80
2022-08-26T14:06:13.964Z,83.40
2022-08-26T14:08:46.996Z,83.30
2022-08-26T14:11:19.346Z,82.90
2022-08-26T14:13:51.423Z,84.10
2022-08-26T14:16:31.150Z,84.40
2022-08-26T14:19:07.759Z,83.80
2022-08-26T14:21:39.924Z,82.60
2022-08-26T14:24:12.081Z,83.00
2022-08-26T14:26:43.979Z,83.50
2022-08-26T14:29:16.866Z,83.60
2022-08-26T14:31:49.036Z,84.10
2022-08-26T14:34:21.114Z,84.40
2022-08-26T14:36:53.235Z,85.20
2022-08-26T14:39:26.105Z,85.00
2022-08-26T14:41:58.337Z,84.70
2022-08-26T14:44:32.768Z,84.10
2022-08-26T14:47:06.667Z,83.50
2022-08-26T14:49:38.857Z,83.20
2022-08-26T14:52:10.884Z,83.70
2022-08-26T14:54:42.991Z,83.70
2022-08-26T14:57:15.619Z,83.30
2022-08-26T14:59:53.295Z,82.50
2022-08-26T15:02:25.275Z,82.30
2022-08-26T15:05:05.513Z,82.20
2022-08-26T15:07:40.930Z,81.90
2022-08-26T15:10:15.424Z,81.40
2022-08-26T15:12:47.335Z,81.10
2022-08-26T15:15:19.418Z,81.10
2022-08-26T15:17:51.406Z,80.80
2022-08-26T15:20:23.628Z,82.40
2022-08-26T15:22:55.666Z,81.80
2022-08-26T15:25:28.273Z,82.60
2022-08-26T15:28:00.395Z,82.00
2022-08-26T15:30:33.492Z,82.50
2022-08-26T15:33:05.525Z,82.40
2022-08-26T15:35:47.532Z,81.90
2022-08-26T15:38:19.517Z,82.10
2022-08-26T15:40:51.438Z,82.30
2022-08-26T15:43:29.097Z,82.70
2022-08-26T15:46:01.511Z,82.10
2022-08-26T15:48:33.502Z,82.10
2022-08-26T15:51:06.440Z,82.50
2022-08-26T15:53:38.369Z,82.80
2022-08-26T15:56:10.280Z,83.40
2022-08-26T15:58:45.252Z,83.20
2022-08-26T16:01:23.980Z,83.40
2022-08-26T16:04:00.663Z,84.00
2022-08-26T16:06:34.819Z,83.70
2022-08-26T16:09:07.624Z,84.50
2022-08-26T16:11:39.619Z,85.40
2022-08-26T16:14:11.802Z,85.60
2022-08-26T16:16:43.869Z,85.80
2022-08-26T16:19:15.933Z,86.00
2022-08-26T16:21:49.248Z,86.10
2022-08-26T16:24:24.838Z,86.10
2022-08-26T16:26:59.361Z,85.80
2022-08-26T16:29:32.167Z,86.60
2022-08-26T16:32:08.703Z,87.00
2022-08-26T16:34:47.073Z,87.70
2022-08-26T16:37:28.969Z,87.80
2022-08-26T16:40:01.098Z,89.00
2022-08-26T16:42:33.483Z,89.20
2022-08-26T16:45:06.389Z,90.00
2022-08-26T16:47:38.949Z,90.30
2022-08-26T16:50:12.930Z,90.40
2022-08-26T16:52:45.253Z,90.40
2022-08-26T16:55:18.457Z,90.40
2022-08-26T16:57:51.145Z,90.60
2022-08-26T17:00:28.250Z,90.60
2022-08-26T17:03:01.541Z,90.80
2022-08-26T17:05:33.748Z,91.10
2022-08-26T17:08:06.307Z,91.10
2022-08-26T17:10:38.360Z,91.10
2022-08-26T17:13:10.477Z,91.10
2022-08-26T17:15:54.194Z,91.00
2022-08-26T17:18:33.529Z,91.10
2022-08-26T17:21:09.147Z,91.20
2022-08-26T17:23:43.028Z,91.20
2022-08-26T17:26:14.889Z,91.50
2022-08-26T17:28:46.899Z,91.70
2022-08-26T17:31:23.547Z,91.90
2022-08-26T17:33:55.992Z,92.10
2022-08-26T17:36:28.490Z,92.30
2022-08-26T17:39:00.615Z,92.30
2022-08-26T17:41:35.458Z,92.50
2022-08-26T17:44:08.577Z,92.70
2022-08-26T17:46:40.763Z,92.80
2022-08-26T17:49:12.781Z,92.90
2022-08-26T17:51:44.739Z,92.90
2022-08-26T17:54:16.641Z,92.90
2022-08-26T17:56:48.651Z,92.70
2022-08-26T17:59:20.838Z,92.70
2022-08-26T18:01:58.942Z,92.60
2022-08-26T18:04:31.751Z,92.90
2022-08-26T18:07:03.827Z,93.00
2022-08-26T18:09:38.697Z,93.40
2022-08-26T18:12:14.266Z,93.60
2022-08-26T18:14:46.368Z,93.80
2022-08-26T18:17:19.510Z,94.30
2022-08-26T18:19:51.564Z,94.60
2022-08-26T18:22:23.525Z,94.80
2022-08-26T18:24:58.748Z,94.90
2022-08-26T18:27:31.218Z,95.20
2022-08-26T18:30:06.019Z,95.50
2022-08-26T18:32:37.964Z,95.60
2022-08-26T18:35:10.931Z,95.70
2022-08-26T18:37:43.087Z,96.00
2022-08-26T18:40:16.091Z,95.70
2022-08-26T18:42:49.272Z,95.60
2022-08-26T18:45:25.912Z,95.60
2022-08-26T18:47:57.795Z,95.80
2022-08-26T18:50:30.165Z,95.90
2022-08-26T18:53:02.586Z,96.00
2022-08-26T18:55:35.337Z,96.20
2022-08-26T18:58:07.240Z,96.50
2022-08-26T19:00:39.208Z,96.60
2022-08-26T19:03:18.624Z,96.80
2022-08-26T19:05:51.125Z,96.50
2022-08-26T19:08:22.991Z,96.50
2022-08-26T19:10:54.961Z,96.40
2022-08-26T19:13:26.958Z,96.30
2022-08-26T19:15:58.807Z,96.20
2022-08-26T19:18:31.140Z,96.10
2022-08-26T19:21:05.746Z,96.40
2022-08-26T19:23:37.955Z,96.20
2022-08-26T19:26:11.491Z,96.30
2022-08-26T19:28:43.555Z,96.20
2022-08-26T19:31:15.612Z,96.30
2022-08-26T19:33:47.769Z,96.30
2022-08-26T19:36:22.694Z,96.20
2022-08-26T19:38:56.707Z,96.40
2022-08-26T19:41:36.902Z,96.80
2022-08-26T19:44:38.349Z,96.20
2022-08-26T19:47:11.251Z,96.30
2022-08-26T19:49:43.216Z,96.20
2022-08-26T19:52:15.108Z,96.20
2022-08-26T19:54:47.705Z,96.00
2022-08-26T19:57:19.799Z,96.10
2022-08-26T19:59:51.798Z,96.30
2022-08-26T20:02:23.757Z,96.40
2022-08-26T20:04:55.784Z,96.40
2022-08-26T20:07:28.058Z,96.40
2022-08-26T20:10:00.072Z,96.40
2022-08-26T20:12:33.692Z,96.40
2022-08-26T20:15:06.389Z,96.40
2022-08-26T20:17:39.009Z,96.30
2022-08-26T20:20:33.694Z,96.40
2022-08-26T20:23:05.868Z,96.30
2022-08-26T20:25:37.878Z,96.40
2022-08-26T20:28:10.091Z,96.50
2022-08-26T20:30:42.319Z,96.60
2022-08-26T20:33:14.346Z,96.60
2022-08-26T20:35:46.961Z,96.70
2022-08-26T20:38:21.542Z,96.70
2022-08-26T20:40:54.120Z,96.70
2022-08-26T20:43:28.362Z,96.70
2022-08-26T20:46:00.918Z,96.60
2022-08-26T20:48:32.944Z,96.40
2022-08-26T20:51:05.827Z,96.30
2022-08-26T20:53:37.828Z,96.30
2022-08-26T20:56:11.101Z,96.40
2022-08-26T20:58:43.343Z,96.50
2022-08-26T21:01:33.603Z,96.70
2022-08-26T21:04:08.771Z,96.70
2022-08-26T21:06:42.359Z,96.60
2022-08-26T21:09:25.957Z,96.60
2022-08-26T21:11:58.003Z,96.60
2022-08-26T21:14:29.962Z,96.50
2022-08-26T21:17:02.548Z,96.80
2022-08-26T21:19:34.515Z,96.50
2022-08-26T21:22:06.571Z,96.60
2022-08-26T21:24:38.540Z,96.70
2022-08-26T21:27:10.592Z,96.70
2022-08-26T21:29:42.558Z,96.90
2022-08-26T21:32:15.813Z,97.00
2022-08-26T21:34:47.823Z,97.20
2022-08-26T21:37:19.811Z,97.40
2022-08-26T21:39:56.908Z,97.20
2022-08-26T21:42:33.050Z,97.10
2022-08-26T21:45:06.433Z,97.00
2022-08-26T21:47:38.415Z,97.10
2022-08-26T21:50:10.475Z,97.20
2022-08-26T21:52:42.468Z,97.20
2022-08-26T21:55:14.407Z,97.20
2022-08-26T21:57:46.366Z,97.10
2022-08-26T22:00:19.447Z,97.10
2022-08-26T22:02:51.363Z,97.00
2022-08-26T22:05:23.311Z,96.90
2022-08-26T22:07:55.460Z,96.90
2022-08-26T22:10:27.403Z,96.90
2022-08-26T22:12:59.313Z,96.90
2022-08-26T22:15:33.031Z,97.00
2022-08-26T22:18:06.091Z,97.10
2022-08-26T22:20:38.266Z,97.10
2022-08-26T22:23:10.710Z,97.20
2022-08-26T22:25:42.651Z,97.20
2022-08-26T22:28:15.051Z,97.20
2022-08-26T22:30:48.434Z,97.20
2022-08-26T22:33:20.445Z,97.30
2022-08-26T22:35:53.658Z,97.20
2022-08-26T22:38:26.114Z,97.20
2022-08-26T22:41:00.228Z,97.20
2022-08-26T22:43:32.246Z,97.10
2022-08-26T22:46:08.473Z,97.20
2022-08-26T22:48:40.455Z,97.30
2022-08-26T22:51:13.076Z,97.20
2022-08-26T22:53:45.872Z,97.20
2022-08-26T22:56:19.150Z,97.20
2022-08-26T22:58:51.074Z,97.30
2022-08-26T23:01:23.324Z,97.30
2022-08-26T23:03:55.413Z,97.30
2022-08-26T23:06:27.574Z,97.10
2022-08-26T23:08:59.509Z,97.10
2022-08-26T23:11:31.954Z,97.00
2022-08-26T23:14:06.233Z,97.00
2022-08-26T23:16:43.945Z,97.10
2022-08-26T23:19:18.918Z,97.10
2022-08-26T23:21:51.093Z,97.10
2022-08-26T23:24:23.101Z,97.10
2022-08-26T23:26:55.138Z,97.10
2022-08-26T23:29:27.556Z,97.10
2022-08-26T23:32:00.352Z,97.00
2022-08-26T23:34:51.314Z,97.00
2022-08-26T23:37:24.123Z,96.90
2022-08-26T23:40:02.103Z,96.90
2022-08-26T23:42:36.238Z,96.90
2022-08-26T23:45:10.079Z,97.20
2022-08-26T23:47:41.967Z,96.90
2022-08-26T23:50:14.530Z,96.90
2022-08-26T23:53:05.211Z,97.00
2022-08-26T23:55:38.855Z,97.10
2022-08-26T23:58:11.247Z,97.20
